Flight Track Log - Related Links

Times and Time Zones

All times are in EDT time to prevent confusion due to time zone crossing. See the UAL1001 flight status page for this flight to view local times or setup timezone preferences in your user account.

Time Position Orientation Groundspeed Altitude Reporting Facility
EDT Latitude Longitude Course Direction KTS MPH feet Rate Location/Type
Mon 09:51:34 PM 40.6500 -74.1833 180° South 173 199 1,900  Level New York TRACON
Mon 09:52:28 PM 40.6167 -74.2167 217° Southwest 226 260 3,800 2,158 Climbing New York TRACON
Mon 09:53:00 PM 40.3703 -74.1819 161° South  Level FlightAware Approximate
Mon 09:53:28 PM 40.5500 -74.2667 210° Southwest 246 283 6,000  Level New York TRACON
Mon 09:54:00 PM 40.2594 -74.1636 194° South  Level FlightAware Approximate
Mon 09:54:34 PM 40.4833 -74.2333 159° South 261 300 6,000  Level New York TRACON
Mon 09:55:00 PM 40.1466 -74.2000 180° South  Level FlightAware Approximate
Mon 09:56:00 PM 40.0474 -74.2333 180° South  Level FlightAware Approximate
Mon 09:56:15 PM 40.3664 -74.1897 164° South 266 306 6,300  Level New York Center
Mon 09:57:16 PM 40.3044 -74.1675 165° South 261 300 9,500 2,754 Climbing New York Center
Mon 09:58:17 PM 40.2203 -74.1933 193° South 265 305 11,900 2,118 Climbing New York Center
Mon 09:59:15 PM 40.1256 -74.2211 193° South 317 365 13,700 2,296 Climbing New York Center
Mon 10:01:33 PM 39.9172 -74.3364 203° Southwest 372 428 19,400 2,406 Climbing Washington Center
Mon 10:02:32 PM 39.8264 -74.4189 215° Southwest 390 449 21,600 2,168 Climbing Washington Center
Mon 10:03:32 PM 39.7442 -74.5256 225° Southwest 410 472 23,700 1,835 Climbing Washington Center
Mon 10:04:33 PM 39.6597 -74.6372 226° Southwest 424 488 25,300 1,664 Climbing Washington Center
Mon 10:05:31 PM 39.5542 -74.7169 210° Southwest 434 499 27,000 1,866 Climbing Washington Center
Mon 10:06:32 PM 39.4483 -74.7961 210° Southwest 440 506 29,000 1,869 Climbing Washington Center
Mon 10:07:33 PM 39.3406 -74.8725 209° Southwest 445 512 30,800 1,765 Climbing Washington Center
Mon 10:08:31 PM 39.2367 -74.9486 210° Southwest 440 506 32,500 1,664 Climbing Washington Center
Mon 10:09:32 PM 39.1308 -75.0244 209° Southwest 440 506 34,100 1,636 Climbing Washington Center
Mon 10:10:32 PM 39.0269 -75.0972 209° Southwest 440 506 35,800 942 Climbing Washington Center
Mon 10:11:33 PM 38.9231 -75.1700 209° Southwest 440 506 36,000 99 Climbing Washington Center
Mon 10:12:33 PM 38.8211 -75.2425 209° Southwest 435 501 36,000  Level Washington Center
Mon 10:13:32 PM 38.7169 -75.3175 209° Southwest 435 501 36,000  Level Washington Center
Mon 10:14:32 PM 38.6128 -75.3925 209° Southwest 435 501 36,000  Level Washington Center
Mon 10:15:32 PM 38.5089 -75.4669 209° Southwest 435 501 36,000  Level Washington Center
Mon 10:16:33 PM 38.4044 -75.5386 208° Southwest 435 501 36,000  Level Washington Center
Mon 10:17:33 PM 38.2878 -75.6128 207° Southwest 435 501 36,000  Level Washington Center
Mon 10:18:31 PM 38.1897 -75.6789 208° Southwest 440 506 36,000  Level Washington Center
Mon 10:19:33 PM 38.0856 -75.7553 210° Southwest 440 506 36,000  Level Washington Center
Mon 10:20:30 PM 37.9811 -75.8261 208° Southwest 440 506 36,000  Level Washington Center
Mon 10:21:31 PM 37.8786 -75.8994 209° Southwest 440 506 36,000  Level Washington Center
Mon 10:22:31 PM 37.7597 -75.9781 208° Southwest 440 506 36,000  Level Washington Center
Mon 10:23:32 PM 37.6717 -76.0483 212° Southwest 434 499 36,000  Level Washington Center
Mon 10:24:33 PM 37.5672 -76.1183 208° Southwest 434 499 36,000  Level Washington Center
Mon 10:25:31 PM 37.4606 -76.1858 207° Southwest 434 499 36,000  Level Washington Center
Mon 10:26:33 PM 37.3539 -76.2556 207° Southwest 434 499 36,000  Level Washington Center
Mon 10:27:31 PM 37.2492 -76.3250 208° Southwest 434 499 36,000  Level Washington Center
Mon 10:28:32 PM 37.1422 -76.3969 208° Southwest 434 499 36,000  Level Washington Center
Mon 10:29:32 PM 37.0353 -76.4686 208° Southwest 434 499 36,000  Level Washington Center
Mon 10:30:32 PM 36.9306 -76.5403 209° Southwest 439 505 36,000  Level Washington Center
Mon 10:31:33 PM 36.8236 -76.6117 208° Southwest 439 505 36,000  Level Washington Center
Mon 10:32:31 PM 36.7164 -76.6803 207° Southwest 439 505 36,000  Level Washington Center
Mon 10:33:31 PM 36.6031 -76.7614 210° Southwest 439 505 36,000  Level Washington Center
Mon 10:34:32 PM 36.5086 -76.8219 207° Southwest 439 505 36,000  Level Washington Center
Mon 10:35:32 PM 36.3908 -76.8975 207° Southwest 439 505 36,000  Level Washington Center
Mon 10:36:31 PM 36.2858 -76.9681 208° Southwest 439 505 36,000  Level Washington Center
Mon 10:37:33 PM 36.1808 -77.0356 207° Southwest 439 505 36,000  Level Washington Center
Mon 10:38:33 PM 36.0756 -77.1056 208° Southwest 439 505 36,000  Level Washington Center
Mon 10:39:31 PM 35.9725 -77.1706 207° Southwest 433 498 36,000  Level Washington Center
Mon 10:40:31 PM 35.8672 -77.2428 209° Southwest 433 498 36,000  Level Washington Center
Mon 10:41:32 PM 35.7719 -77.3303 217° Southwest 433 498 36,000  Level Washington Center
Mon 10:42:32 PM 35.6853 -77.4103 217° Southwest 433 498 36,000  Level Washington Center
Mon 10:43:32 PM 35.5919 -77.5053 220° Southwest 433 498 36,000 248 Level Washington Center
Mon 10:44:33 PM 35.4989 -77.5947 218° Southwest 438 504 36,500 908 Climbing Washington Center
Mon 10:45:31 PM 35.4075 -77.6817 218° Southwest 433 498 37,800 1,311 Climbing Washington Center
Mon 10:46:32 PM 35.3161 -77.7711 219° Southwest 428 493 39,100 1,100 Climbing Washington Center
Mon 10:47:31 PM 35.2269 -77.8575 218° Southwest 423 487 40,000 446 Climbing Washington Center
Mon 10:48:33 PM 35.1336 -77.9464 218° Southwest 423 487 40,000  Level Washington Center
Mon 10:49:33 PM 35.0464 -78.0300 218° Southwest 423 487 40,000  Level Washington Center
Mon 10:50:31 PM 34.9547 -78.1186 218° Southwest 423 487 40,000  Level Washington Center
Mon 10:51:32 PM 34.8631 -78.2069 218° Southwest 428 493 40,000  Level Washington Center
Mon 10:53:16 PM 34.7106 -78.3619 220° Southwest 426 490 40,000  Level Jacksonville Center
Mon 10:54:16 PM 34.6053 -78.4506 215° Southwest 421 484 40,000  Level Jacksonville Center
Mon 10:55:16 PM 34.5144 -78.5386 219° Southwest 421 484 40,000  Level Jacksonville Center
Mon 10:56:16 PM 34.4378 -78.6203 221° Southwest 421 484 40,000  Level Jacksonville Center
Mon 10:57:16 PM 34.3469 -78.7053 218° Southwest 421 484 40,000  Level Jacksonville Center
Mon 10:58:16 PM 34.2714 -78.8169 231° Southwest 421 484 40,000  Level Jacksonville Center
Mon 10:59:16 PM 34.2019 -78.9281 233° Southwest 421 484 40,000  Level Jacksonville Center
Mon 11:00:16 PM 34.1278 -79.0294 229° Southwest 421 484 40,000  Level Jacksonville Center
Mon 11:01:16 PM 34.0189 -79.0817 202° Southwest 406 467 40,000  Level Jacksonville Center
Mon 11:02:16 PM 33.8972 -79.1347 200° South 413 475 40,000  Level Jacksonville Center
Mon 11:03:16 PM 33.7881 -79.1842 201° Southwest 420 483 40,000  Level Jacksonville Center
Mon 11:04:16 PM 33.6850 -79.2261 199° South 420 483 40,000  Level Jacksonville Center
Mon 11:05:16 PM 33.5758 -79.2756 201° Southwest 415 478 40,000  Level Jacksonville Center
Mon 11:06:16 PM 33.4686 -79.3222 200° South 415 478 40,000  Level Jacksonville Center
Mon 11:07:16 PM 33.3594 -79.3714 201° Southwest 415 478 40,000  Level Jacksonville Center
Mon 11:08:16 PM 33.2503 -79.4203 201° Southwest 420 483 40,000  Level Jacksonville Center
Mon 11:09:16 PM 33.1389 -79.4694 200° South 426 490 40,000  Level Jacksonville Center
Mon 11:10:16 PM 33.0297 -79.5206 201° Southwest 426 490 40,000  Level Jacksonville Center
Mon 11:11:16 PM 32.9183 -79.5692 200° South 426 490 40,000  Level Jacksonville Center
Mon 11:12:16 PM 32.8089 -79.6178 200° South 426 490 40,000  Level Jacksonville Center
Mon 11:13:16 PM 32.7017 -79.6661 201° Southwest 426 490 40,000  Level Jacksonville Center
Mon 11:14:16 PM 32.5922 -79.7144 200° South 426 490 40,000  Level Jacksonville Center
Mon 11:15:16 PM 32.4828 -79.7625 200° South 426 490 40,000  Level Jacksonville Center
Mon 11:16:16 PM 32.3794 -79.8078 200° South 426 490 40,000  Level Jacksonville Center
Mon 11:17:16 PM 32.2722 -79.8581 202° Southwest 421 484 40,000  Level Jacksonville Center
Mon 11:18:16 PM 32.1625 -79.9036 199° South 421 484 40,000  Level Jacksonville Center
Mon 11:19:16 PM 32.0550 -79.9486 200° South 421 484 40,000  Level Jacksonville Center
Mon 11:20:16 PM 31.9456 -79.9986 201° Southwest 421 484 40,000  Level Jacksonville Center
Mon 11:21:16 PM 31.8381 -80.0486 202° Southwest 426 490 40,000  Level Jacksonville Center
Mon 11:22:16 PM 31.7239 -80.0739 191° South 420 483 40,000  Level Jacksonville Center
Mon 11:23:16 PM 31.6075 -80.1019 192° South 420 483 40,000  Level Jacksonville Center
Mon 11:24:16 PM 31.4911 -80.1225 189° South 420 483 40,000  Level Jacksonville Center
Mon 11:25:16 PM 31.3894 -80.1450 191° South 420 483 40,000  Level Jacksonville Center
Mon 11:26:16 PM 31.2728 -80.1653 188° South 428 493 40,000  Level Jacksonville Center
Mon 11:27:16 PM 31.1606 -80.1906 191° South 428 493 40,000  Level Jacksonville Center
Mon 11:28:16 PM 31.0422 -80.2133 189° South 428 493 40,000  Level Jacksonville Center
Mon 11:29:16 PM 30.9258 -80.2383 190° South 429 494 40,000  Level Jacksonville Center
Mon 11:30:16 PM 30.8094 -80.2611 190° South 429 494 40,000  Level Jacksonville Center
Mon 11:31:16 PM 30.6928 -80.2861 190° South 424 488 40,000  Level Jacksonville Center
Mon 11:32:16 PM 30.5744 -80.3061 188° South 431 496 40,000  Level Jacksonville Center
Mon 11:33:16 PM 30.4558 -80.3311 190° South 431 496 40,000  Level Jacksonville Center
Mon 11:34:16 PM 30.3414 -80.3558 191° South 426 490 40,000  Level Jacksonville Center
Mon 11:35:16 PM 30.2272 -80.3781 190° South 426 490 40,000  Level Jacksonville Center
Mon 11:36:16 PM 30.1086 -80.4003 189° South 426 490 40,000  Level Jacksonville Center
Mon 11:37:16 PM 29.9900 -80.4272 191° South 426 490 40,000  Level Jacksonville Center
Mon 11:39:39 PM 29.7111 -80.4797 189° South 444 511 40,000  Level Miami Center
Mon 11:40:42 PM 29.5936 -80.4994 188° South 439 505 40,000  Level Miami Center
Mon 11:41:42 PM 29.4764 -80.5219 189° South 434 499 40,000 -151 Level Miami Center
Mon 11:42:41 PM 29.3592 -80.5344 185° South 429 494 39,700 -650 Descending Miami Center
Mon 11:43:42 PM 29.2431 -80.5117 170° South 423 487 38,700 -966 Descending Miami Center
Mon 11:44:39 PM 29.1206 -80.4886 171° South 428 493 37,800 -958 Descending Miami Center
Mon 11:45:41 PM 28.9981 -80.4631 170° South 443 510 36,800 -900 Descending Miami Center
Mon 11:46:39 PM 28.8675 -80.4375 170° South 443 510 36,000 -763 Descending Miami Center
Mon 11:47:39 PM 28.7575 -80.4150 170° South 449 517 35,300 -885 Descending Miami Center
Mon 11:48:41 PM 28.6203 -80.3872 170° South 449 517 34,200 -1,561 Descending Miami Center
Mon 11:49:42 PM 28.4978 -80.3644 171° South 449 517 32,100 -2,847 Descending Miami Center
Mon 11:50:39 PM 28.3711 -80.3392 170° South 454 522 28,600 -2,650 Descending Miami Center
Mon 11:51:42 PM 28.2611 -80.3169 170° South 454 522 26,800 -1,350 Descending Miami Center
Mon 11:52:39 PM 28.1406 -80.2944 171° South 454 522 25,900 -1,128 Descending Miami Center
Mon 11:53:39 PM 28.0056 -80.2692 171° South 449 517 24,600 -1,934 Descending Miami Center
Mon 11:54:40 PM 27.8892 -80.2444 169° South 444 511 22,000 -2,500 Descending Miami Center
Mon 11:55:39 PM 27.7831 -80.2272 172° South 446 513 19,600 -2,500 Descending Miami Center
Mon 11:56:40 PM 27.6792 -80.2056 170° South 399 459 17,000 -2,600 Descending Miami Center
Mon 11:57:39 PM 27.5733 -80.1858 171° South 388 447 14,400 -2,727 Descending Miami Center
Mon 11:58:41 PM 27.4653 -80.1642 170° South 369 425 11,500 -2,050 Descending Miami Center
Mon 11:59:39 PM 27.3758 -80.1475 171° South 356 410 10,300 -756 Descending Miami Center
Tue 12:00:40 AM 27.2969 -80.1267 167° South 312 359 10,000 -350 Descending Miami Center
Tue 12:01:39 AM 27.2408 -80.1086 164° South 259 298 9,600 -1,109 Descending Miami Center
Tue 12:02:39 AM 27.1747 -80.0881 165° South 240 276 7,800 -1,750 Descending Miami Center
Tue 12:03:39 AM 27.1061 -80.0675 165° South 234 269 6,100 -1,650 Descending Miami Center
Tue 12:04:39 AM 27.0419 -80.0425 161° South 234 269 4,500 -1,350 Descending Miami Center
Tue 12:05:39 AM 26.9800 -80.0106 155° Southeast 245 282 3,400 -976 Descending Miami Center
Tue 12:06:42 AM 26.9264 -79.9786 152° Southeast 245 282 2,500 -689 Descending Miami Center
Tue 12:07:41 AM 26.8706 -79.9492 155° Southeast 239 275 2,000 -508 Descending Miami Center

Login

Don't have an account? Register now (free) for customized features, flight alerts, and more!